Terminal Aerodrome Forecast
Issued by NWS Burlington, VT

Home | Current Version | Previous Version | Text Only | Print | Product List | Glossary On
Versions: 1 2 3 4 5 6 7 8 9 10 11 12 13 14 15 16 17 18 19 20 21 22
000
FTUS41 KBTV 290538
TAFBTV
TAF
KBTV 290538Z 2906/3006 00000KT P6SM SCT035 BKN045
     FM291300 17006KT P6SM SCT040 BKN250
     FM300200 17012G20KT P6SM OVC080
     FM300300 18015G25KT 6SM -SHSN BR OVC060=

USA.gov is the U.S. government's official web portal to all federal, state and local government web resources and services.